createdAt,value
2022-12-04T06:02:23.772Z,54.80
2022-12-04T06:07:26.235Z,50.72
2022-12-04T06:12:30.197Z,51.40
2022-12-04T06:17:32.381Z,51.10
2022-12-04T06:22:34.728Z,51.65
2022-12-04T06:27:36.973Z,51.50
2022-12-04T06:32:39.149Z,52.05
2022-12-04T06:37:41.351Z,49.90
2022-12-04T06:42:43.634Z,51.25
2022-12-04T06:47:45.822Z,53.75
2022-12-04T06:52:48.063Z,51.22
2022-12-04T06:57:50.284Z,52.72
2022-12-04T07:02:52.738Z,52.35
2022-12-04T07:07:55.079Z,52.33
2022-12-04T07:12:57.331Z,52.83
2022-12-04T07:18:00.221Z,54.35
2022-12-04T07:23:07.087Z,52.13
2022-12-04T07:28:09.734Z,52.83
2022-12-04T07:33:12.075Z,52.70
2022-12-04T07:38:14.265Z,52.03
2022-12-04T07:43:16.473Z,50.20
2022-12-04T07:48:18.842Z,50.33
2022-12-04T07:53:21.104Z,52.13
2022-12-04T07:58:23.315Z,49.08
2022-12-04T08:03:26.118Z,49.33
2022-12-04T08:08:28.386Z,49.42
2022-12-04T08:13:30.853Z,50.42
2022-12-04T08:18:33.688Z,48.10
2022-12-04T08:23:36.669Z,46.60
2022-12-04T08:28:39.528Z,50.45
2022-12-04T08:33:45.572Z,51.10
2022-12-04T08:38:48.840Z,48.00
2022-12-04T08:43:54.608Z,49.85
2022-12-04T08:48:57.840Z,48.00
2022-12-04T08:54:03.534Z,47.13
2022-12-04T08:59:06.121Z,49.00
2022-12-04T09:04:08.497Z,47.38
2022-12-04T09:09:10.970Z,47.45
2022-12-04T09:14:13.318Z,48.72
2022-12-04T09:19:15.534Z,46.80
2022-12-04T09:24:18.040Z,48.55
2022-12-04T09:29:20.278Z,47.08
2022-12-04T09:34:22.498Z,47.08
2022-12-04T09:39:24.698Z,46.90
2022-12-04T09:44:39.371Z,47.75
2022-12-04T09:49:56.835Z,43.70
2022-12-04T09:55:03.472Z,46.75
2022-12-04T10:00:07.031Z,44.53
2022-12-04T10:05:53.701Z,43.85
2022-12-04T10:11:06.387Z,44.22
2022-12-04T10:16:14.950Z,45.33
2022-12-04T10:21:31.231Z,44.80
2022-12-04T10:26:39.251Z,43.22
2022-12-04T10:31:44.855Z,44.83
2022-12-04T10:36:52.121Z,45.72
2022-12-04T10:42:22.104Z,42.40
2022-12-04T10:47:25.419Z,42.72
2022-12-04T10:52:27.942Z,43.72
2022-12-04T10:57:43.873Z,41.42
2022-12-04T11:02:46.392Z,42.53
2022-12-04T11:07:51.679Z,41.40
2022-12-04T11:13:02.852Z,39.63
2022-12-04T11:23:16.556Z,40.05
2022-12-04T11:28:40.614Z,42.05
2022-12-04T11:33:48.172Z,39.67
2022-12-04T11:39:04.082Z,40.25
2022-12-04T11:44:07.367Z,39.72
2022-12-04T11:49:21.519Z,41.38
2022-12-04T11:54:23.676Z,42.03
2022-12-04T12:00:03.745Z,40.20
2022-12-04T12:06:06.592Z,40.00
2022-12-04T12:11:36.204Z,39.80
2022-12-04T12:16:56.672Z,41.08
2022-12-04T12:22:14.870Z,38.77
2022-12-04T12:27:23.088Z,40.20
2022-12-04T12:32:44.107Z,41.38
2022-12-04T12:38:01.382Z,38.80
2022-12-04T12:43:31.937Z,40.25
2022-12-04T12:48:58.718Z,41.10
2022-12-04T12:54:11.442Z,40.22
2022-12-04T12:59:19.405Z,43.28
2022-12-04T13:04:42.200Z,42.05
2022-12-04T13:10:06.795Z,42.85
2022-12-04T13:15:17.717Z,42.63
2022-12-04T13:20:30.288Z,46.92
2022-12-04T13:25:40.962Z,42.00
2022-12-04T13:36:13.952Z,41.53
2022-12-04T13:41:20.338Z,43.03
2022-12-04T13:46:28.632Z,41.92
2022-12-04T13:51:37.782Z,43.97
2022-12-04T13:56:41.292Z,45.00
2022-12-04T14:01:46.771Z,46.35
2022-12-04T14:06:51.772Z,45.22
2022-12-04T14:12:01.544Z,42.58
2022-12-04T14:17:04.277Z,45.73
2022-12-04T14:22:06.619Z,44.90
2022-12-04T14:27:42.302Z,42.60
2022-12-04T14:32:46.908Z,42.60
2022-12-04T14:38:02.259Z,44.00
2022-12-04T14:43:05.340Z,44.90
2022-12-04T14:48:13.229Z,45.55
2022-12-04T14:54:09.312Z,45.47
2022-12-04T14:59:18.328Z,44.85
2022-12-04T15:04:23.486Z,47.88
2022-12-04T15:09:45.116Z,44.15
2022-12-04T15:14:50.067Z,46.20
2022-12-04T15:19:52.284Z,45.15
2022-12-04T15:24:55.951Z,45.30
2022-12-04T15:29:59.422Z,46.88
2022-12-04T15:35:09.016Z,47.20
2022-12-04T15:40:21.919Z,47.70
2022-12-04T15:45:29.540Z,48.85
2022-12-04T15:50:31.904Z,48.92
2022-12-04T15:55:47.188Z,48.63
2022-12-04T16:00:56.469Z,47.03
2022-12-04T16:06:07.480Z,49.78
2022-12-04T16:11:21.839Z,49.53
2022-12-04T16:16:24.082Z,47.83
2022-12-04T16:21:31.419Z,50.90
2022-12-04T16:26:34.078Z,50.38
2022-12-04T16:31:38.119Z,54.95
2022-12-04T16:36:41.460Z,49.72
2022-12-04T16:41:43.644Z,53.00
2022-12-04T16:46:45.967Z,50.50
2022-12-04T16:51:51.419Z,52.10
2022-12-04T16:56:53.662Z,49.53
2022-12-04T17:01:56.122Z,51.63
2022-12-04T17:06:58.415Z,50.75
2022-12-04T17:12:00.639Z,53.08
2022-12-04T17:17:02.863Z,54.03
2022-12-04T17:22:05.135Z,47.90
2022-12-04T17:27:11.806Z,53.38
2022-12-04T17:32:14.261Z,50.58
2022-12-04T17:37:16.466Z,48.85
2022-12-04T17:42:19.273Z,52.45
2022-12-04T17:47:21.574Z,52.38
2022-12-04T17:52:23.822Z,49.08
2022-12-04T17:57:26.070Z,48.67
2022-12-04T18:02:28.389Z,47.60
2022-12-04T18:07:31.473Z,48.03
2022-12-04T18:12:33.752Z,45.38
2022-12-04T18:17:37.048Z,47.83
2022-12-04T18:22:39.253Z,51.30
2022-12-04T18:27:42.153Z,42.97
2022-12-04T18:32:45.147Z,44.60
2022-12-04T18:37:47.706Z,45.38
2022-12-04T18:42:51.836Z,46.92
2022-12-04T18:47:54.050Z,44.50
2022-12-04T18:53:14.688Z,45.35
2022-12-04T18:58:17.775Z,44.90
2022-12-04T19:03:20.059Z,45.92
2022-12-04T19:08:22.266Z,46.70
2022-12-04T19:13:24.462Z,46.05
2022-12-04T19:18:26.896Z,43.10
2022-12-04T19:23:29.105Z,45.83
2022-12-04T19:28:31.346Z,46.10
2022-12-04T19:33:33.646Z,42.90
2022-12-04T19:38:35.949Z,41.67
2022-12-04T19:43:40.488Z,44.03
2022-12-04T19:48:45.179Z,44.05
2022-12-04T19:53:49.049Z,45.53
2022-12-04T19:58:56.416Z,44.08
2022-12-04T20:04:02.452Z,45.72
2022-12-04T20:09:08.805Z,45.22
2022-12-04T20:14:11.101Z,45.47
2022-12-04T20:19:15.695Z,48.53
2022-12-04T20:24:18.244Z,46.20
2022-12-04T20:29:21.631Z,49.13
2022-12-04T20:34:23.920Z,45.38
2022-12-04T20:39:26.299Z,46.55
2022-12-04T20:44:28.640Z,47.65
2022-12-04T20:49:30.937Z,44.65
2022-12-04T20:54:39.414Z,45.55
2022-12-04T20:59:43.650Z,45.22
2022-12-04T21:04:45.895Z,43.70
2022-12-04T21:09:48.231Z,45.65
2022-12-04T21:15:08.999Z,46.08
2022-12-04T21:20:11.957Z,46.92
2022-12-04T21:25:14.389Z,48.78
2022-12-04T21:30:16.713Z,45.97
2022-12-04T21:35:18.969Z,48.22
2022-12-04T21:40:21.250Z,48.83
2022-12-04T21:45:23.521Z,44.95
2022-12-04T21:50:25.823Z,47.63
2022-12-04T21:55:28.094Z,46.47
2022-12-04T22:00:30.325Z,45.70
2022-12-04T22:05:32.930Z,46.38
2022-12-04T22:10:44.056Z,46.72
2022-12-04T22:15:46.433Z,45.53
2022-12-04T22:20:50.394Z,47.45
2022-12-04T22:25:52.600Z,47.63
2022-12-04T22:30:54.921Z,44.33
2022-12-04T22:36:05.010Z,46.08
2022-12-04T22:41:11.684Z,45.00
2022-12-04T22:46:14.814Z,46.75
2022-12-04T22:51:20.617Z,44.67
2022-12-04T22:56:28.503Z,46.00
2022-12-04T23:01:33.052Z,48.88
2022-12-04T23:06:35.707Z,47.85
2022-12-04T23:11:39.275Z,46.95
2022-12-04T23:16:42.242Z,48.42
2022-12-04T23:21:44.749Z,48.58
